Time;durP1;ratioP1;P1;durP2;ratioP2;P2;SDS_P1;SDS_P2;PMS_P1;PMS_P2;Temp;Humidity;BMP_temperature;BMP_pressure;BME280_temperature;BME280_humidity;BME280_pressure;Samples;Min_cycle;Max_cycle;Signal;HPM_P1;HPM_P2
2023/05/30 00:00:29;;;;;;;9.75;2.67;;;11.70;99.90;;;;;;5095864;28;20043;-86
2023/05/30 00:02:55;;;;;;;12.88;3.63;;;11.60;99.90;;;;;;5095781;28;20142;-83
2023/05/30 00:05:21;;;;;;;9.95;3.25;;;11.60;99.90;;;;;;5095702;28;20538;-84
2023/05/30 00:07:46;;;;;;;11.02;3.38;;;11.70;99.90;;;;;;5095733;28;20086;-85
2023/05/30 00:10:13;;;;;;;9.27;3.38;;;11.60;99.90;;;;;;5095586;28;20071;-85
2023/05/30 00:12:41;;;;;;;14.07;3.53;;;11.60;99.90;;;;;;5095755;28;20046;-83
2023/05/30 00:15:10;;;;;;;10.52;3.22;;;11.60;99.90;;;;;;5095799;28;20066;-83
2023/05/30 00:17:37;;;;;;;12.18;2.97;;;11.60;99.90;;;;;;5095601;28;20502;-84
2023/05/30 00:20:03;;;;;;;11.25;2.70;;;11.60;99.90;;;;;;5095356;28;20398;-85
2023/05/30 00:22:29;;;;;;;11.52;3.03;;;11.60;99.90;;;;;;5095311;28;20479;-84
2023/05/30 00:24:59;;;;;;;15.02;3.47;;;11.60;99.90;;;;;;5097710;28;20050;-84
2023/05/30 00:27:25;;;;;;;9.10;3.75;;;11.60;99.90;;;;;;5099748;28;20043;-83
2023/05/30 00:29:51;;;;;;;10.07;3.20;;;11.60;99.90;;;;;;5099409;28;20047;-83
2023/05/30 00:32:17;;;;;;;13.10;3.08;;;11.60;99.90;;;;;;5099392;28;20134;-84
2023/05/30 00:34:42;;;;;;;11.85;3.03;;;11.60;99.90;;;;;;5098897;28;20051;-83
2023/05/30 00:37:08;;;;;;;12.43;3.22;;;11.60;99.90;;;;;;5099313;28;20058;-83
2023/05/30 00:39:35;;;;;;;11.55;3.60;;;11.60;99.90;;;;;;5099248;28;20040;-84
2023/05/30 00:42:02;;;;;;;10.25;3.60;;;11.60;99.90;;;;;;5099071;28;20127;-84
2023/05/30 00:44:27;;;;;;;11.63;2.90;;;11.40;99.90;;;;;;5099202;28;20425;-84
2023/05/30 00:46:53;;;;;;;11.38;3.30;;;11.40;99.90;;;;;;5098997;28;20046;-83
2023/05/30 00:49:19;;;;;;;9.80;2.80;;;11.50;99.90;;;;;;5099079;28;20047;-84
2023/05/30 00:51:46;;;;;;;10.07;3.35;;;11.50;99.90;;;;;;5098710;28;20401;-84
2023/05/30 00:54:11;;;;;;;13.70;3.20;;;11.60;99.90;;;;;;5098906;28;20113;-83
2023/05/30 00:56:37;;;;;;;9.75;3.30;;;11.50;99.90;;;;;;5098826;28;20384;-84
2023/05/30 00:59:06;;;;;;;15.52;3.55;;;11.60;99.90;;;;;;5099033;28;20050;-83
2023/05/30 01:01:33;;;;;;;9.50;3.35;;;11.50;99.90;;;;;;5116883;28;20035;-84
2023/05/30 01:04:01;;;;;;;13.68;4.10;;;11.50;99.90;;;;;;5098756;28;20051;-83
2023/05/30 01:06:30;;;;;;;12.38;3.40;;;11.60;99.90;;;;;;5098782;28;20119;-83
2023/05/30 01:08:58;;;;;;;10.05;4.03;;;11.50;99.90;;;;;;5098807;28;20052;-84
2023/05/30 01:11:40;;;;;;;8.85;3.72;;;11.50;99.90;;;;;;5098539;28;20365;-86
2023/05/30 01:14:17;;;;;;;17.52;3.88;;;11.50;99.90;;;;;;5098718;28;20048;-83
2023/05/30 01:16:49;;;;;;;11.45;3.42;;;11.60;99.90;;;;;;5098354;28;20047;-84
2023/05/30 01:19:33;;;;;;;13.60;3.45;;;11.50;99.90;;;;;;5098442;28;20185;-84
2023/05/30 01:22:20;;;;;;;14.52;3.70;;;11.50;99.90;;;;;;5098296;28;20047;-83
2023/05/30 01:25:12;;;;;;;14.05;3.78;;;11.60;99.90;;;;;;5098187;28;20040;-84
2023/05/30 01:27:54;;;;;;;14.27;4.50;;;11.60;99.90;;;;;;5098388;28;20431;-84
2023/05/30 01:30:23;;;;;;;12.80;4.00;;;11.50;99.90;;;;;;5098139;28;20055;-84
2023/05/30 01:32:49;;;;;;;15.00;4.63;;;11.60;99.90;;;;;;5098209;28;20118;-84
2023/05/30 01:35:23;;;;;;;16.33;4.30;;;11.60;99.90;;;;;;5097723;28;20440;-84
2023/05/30 01:37:50;;;;;;;17.83;4.10;;;11.60;99.90;;;;;;5097837;28;20692;-83
2023/05/30 01:40:25;;;;;;;17.10;4.38;;;11.60;99.90;;;;;;5086062;28;20491;-84
2023/05/30 01:43:07;;;;;;;10.05;3.55;;;11.60;99.90;;;;;;5077686;28;20048;-84
2023/05/30 01:45:43;;;;;;;14.57;4.25;;;11.70;99.90;;;;;;5077718;28;20071;-85
2023/05/30 01:48:25;;;;;;;13.65;3.55;;;11.70;99.90;;;;;;5095766;28;20051;-84
2023/05/30 01:50:52;;;;;;;15.63;3.60;;;11.60;99.90;;;;;;5095589;28;20483;-84
2023/05/30 01:53:31;;;;;;;14.18;3.00;;;11.70;99.90;;;;;;5077489;28;20040;-83
2023/05/30 01:55:58;;;;;;;20.15;5.22;;;11.70;99.90;;;;;;5077327;28;20048;-83
2023/05/30 01:58:25;;;;;;;14.20;3.55;;;11.70;99.90;;;;;;5077189;28;20036;-84
2023/05/30 02:00:58;;;;;;;13.90;3.33;;;11.70;99.90;;;;;;5077443;28;20079;-84
2023/05/30 02:03:24;;;;;;;11.23;3.40;;;11.60;99.90;;;;;;5077305;28;20048;-83
2023/05/30 02:05:50;;;;;;;10.93;3.50;;;11.70;99.90;;;;;;5077431;28;20046;-84
2023/05/30 02:08:16;;;;;;;9.90;3.85;;;11.70;99.90;;;;;;5077127;28;20039;-83
2023/05/30 02:10:42;;;;;;;16.90;4.05;;;11.70;99.90;;;;;;5077213;28;20052;-83
2023/05/30 02:13:07;;;;;;;14.93;3.50;;;11.70;99.90;;;;;;5095080;28;20051;-84
2023/05/30 02:15:36;;;;;;;12.13;3.80;;;11.70;99.90;;;;;;5077228;28;20496;-84
2023/05/30 02:18:02;;;;;;;14.70;4.40;;;11.70;99.90;;;;;;5076858;28;20039;-84
2023/05/30 02:20:27;;;;;;;11.13;3.22;;;11.70;99.90;;;;;;5077098;28;20054;-85
2023/05/30 02:22:53;;;;;;;14.95;3.92;;;11.70;99.90;;;;;;5076610;28;20048;-84
2023/05/30 02:25:20;;;;;;;12.60;4.22;;;11.70;99.90;;;;;;5094934;28;20115;-83
2023/05/30 02:27:49;;;;;;;13.68;4.22;;;11.70;99.90;;;;;;5076507;28;20055;-83
2023/05/30 02:30:15;;;;;;;12.27;3.83;;;11.60;99.90;;;;;;5076942;28;20127;-83
2023/05/30 02:32:40;;;;;;;17.13;4.00;;;11.50;99.90;;;;;;5076585;28;20127;-84
2023/05/30 02:35:07;;;;;;;12.25;3.20;;;11.60;99.90;;;;;;5076540;28;20052;-84
2023/05/30 02:37:32;;;;;;;11.00;4.25;;;11.60;99.90;;;;;;5076427;28;20124;-84
2023/05/30 02:39:58;;;;;;;9.45;2.95;;;11.60;99.90;;;;;;5076679;28;20127;-84
2023/05/30 02:42:23;;;;;;;11.65;3.55;;;11.70;99.90;;;;;;5076423;28;20097;-84
2023/05/30 02:44:49;;;;;;;15.15;3.60;;;11.70;99.90;;;;;;5076375;28;20101;-85
2023/05/30 02:47:16;;;;;;;14.88;3.90;;;11.70;99.90;;;;;;5094067;28;20097;-84
2023/05/30 02:49:41;;;;;;;15.88;4.10;;;11.60;99.90;;;;;;5076287;28;20053;-83
2023/05/30 02:52:08;;;;;;;12.43;4.25;;;11.60;99.90;;;;;;5076360;28;20039;-86
2023/05/30 02:54:33;;;;;;;8.73;3.85;;;11.60;99.90;;;;;;5076405;28;20048;-84
2023/05/30 02:57:00;;;;;;;14.27;5.30;;;11.70;99.90;;;;;;5076211;28;20424;-84
2023/05/30 02:59:25;;;;;;;11.10;4.30;;;11.70;99.90;;;;;;5076459;28;20040;-85
2023/05/30 03:01:51;;;;;;;10.45;3.40;;;11.60;99.90;;;;;;5075910;28;20047;-84
2023/05/30 03:04:17;;;;;;;13.00;4.35;;;11.60;99.90;;;;;;5076460;28;20101;-83
2023/05/30 03:06:42;;;;;;;11.70;4.63;;;11.60;99.90;;;;;;5075760;28;20040;-83
2023/05/30 03:09:08;;;;;;;13.73;3.95;;;11.70;99.90;;;;;;5076154;28;20051;-83
2023/05/30 03:11:34;;;;;;;15.45;5.35;;;11.60;99.90;;;;;;5094216;28;20032;-84
2023/05/30 03:13:59;;;;;;;15.02;4.90;;;11.60;99.90;;;;;;5075840;28;20066;-84
2023/05/30 03:16:26;;;;;;;13.38;4.07;;;11.60;99.90;;;;;;5075813;28;20099;-86
2023/05/30 03:18:52;;;;;;;13.38;4.30;;;11.60;99.90;;;;;;5075661;28;20040;-84
2023/05/30 03:21:17;;;;;;;16.17;4.72;;;11.70;99.90;;;;;;5075360;28;20109;-84
2023/05/30 03:23:43;;;;;;;11.75;3.60;;;11.70;99.90;;;;;;5074637;28;20372;-84
2023/05/30 03:26:09;;;;;;;11.30;4.07;;;11.70;99.90;;;;;;5075266;28;20425;-83
2023/05/30 03:28:35;;;;;;;11.32;3.80;;;11.70;99.90;;;;;;5075995;28;20483;-83
2023/05/30 03:31:00;;;;;;;10.20;4.32;;;11.60;99.90;;;;;;5075893;28;20133;-86
2023/05/30 03:33:28;;;;;;;11.73;3.80;;;11.60;99.90;;;;;;5075196;28;20055;-84
2023/05/30 03:35:54;;;;;;;8.35;3.08;;;11.70;99.90;;;;;;5075462;28;20098;-83
2023/05/30 03:38:21;;;;;;;12.73;3.78;;;11.60;99.90;;;;;;5074482;28;20072;-82
2023/05/30 03:40:47;;;;;;;11.45;3.53;;;11.60;99.90;;;;;;5075552;28;20052;-84
2023/05/30 03:43:12;;;;;;;14.48;3.67;;;11.70;99.90;;;;;;5075413;28;20055;-84
2023/05/30 03:45:38;;;;;;;11.50;3.55;;;11.60;99.90;;;;;;5075421;28;20043;-83
2023/05/30 03:48:04;;;;;;;11.20;3.83;;;11.70;99.90;;;;;;5075478;28;20048;-82
2023/05/30 03:50:29;;;;;;;12.30;3.60;;;11.70;99.90;;;;;;5075227;28;20044;-83
2023/05/30 03:52:55;;;;;;;13.93;3.63;;;11.70;99.90;;;;;;5093617;28;20039;-84
2023/05/30 03:55:21;;;;;;;14.95;4.30;;;11.70;99.90;;;;;;5075230;28;20048;-84
2023/05/30 03:57:50;;;;;;;21.17;5.28;;;11.70;99.90;;;;;;5075752;28;20048;-84
2023/05/30 04:00:16;;;;;;;11.40;3.70;;;11.80;99.90;;;;;;5078123;28;20060;-83
2023/05/30 04:02:42;;;;;;;16.15;3.40;;;11.80;99.90;;;;;;5079467;28;20044;-83
2023/05/30 04:05:08;;;;;;;7.05;3.40;;;11.80;99.90;;;;;;5079603;28;20097;-85
2023/05/30 04:07:35;;;;;;;8.32;2.60;;;11.90;99.90;;;;;;5079566;28;20048;-84
2023/05/30 04:10:04;;;;;;;11.20;3.22;;;11.90;99.90;;;;;;5079361;28;20105;-84
2023/05/30 04:12:30;;;;;;;9.10;3.03;;;11.90;99.90;;;;;;5079418;28;20052;-84
2023/05/30 04:14:55;;;;;;;7.40;3.20;;;11.80;99.90;;;;;;5079106;28;20040;-84
2023/05/30 04:17:21;;;;;;;10.07;2.70;;;11.80;99.90;;;;;;5079170;28;20055;-84
2023/05/30 04:19:47;;;;;;;8.82;2.30;;;11.80;99.90;;;;;;5079370;28;20052;-83
2023/05/30 04:22:13;;;;;;;8.95;2.38;;;11.80;99.90;;;;;;5078911;28;20403;-84
2023/05/30 04:24:38;;;;;;;10.15;2.58;;;11.80;99.90;;;;;;5097196;28;20072;-84
2023/05/30 04:27:04;;;;;;;9.63;2.90;;;11.80;99.90;;;;;;5078855;28;20459;-83
2023/05/30 04:29:33;;;;;;;9.23;2.53;;;11.80;99.90;;;;;;5078818;28;20391;-85
2023/05/30 04:31:58;;;;;;;9.32;2.40;;;11.80;99.90;;;;;;5078956;28;20484;-84
2023/05/30 04:34:24;;;;;;;9.38;2.45;;;11.80;99.90;;;;;;5077768;28;20404;-83
2023/05/30 04:36:56;;;;;;;10.25;2.78;;;11.80;99.90;;;;;;5077610;28;20056;-83
2023/05/30 04:39:22;;;;;;;7.30;2.20;;;11.80;99.90;;;;;;5077380;28;20040;-83
2023/05/30 04:41:49;;;;;;;9.60;2.80;;;11.80;99.90;;;;;;5077235;28;20127;-84
2023/05/30 04:44:16;;;;;;;8.27;2.75;;;11.90;99.90;;;;;;5077233;28;20040;-83
2023/05/30 04:46:50;;;;;;;9.25;3.00;;;11.90;99.90;;;;;;5077269;28;20054;-83
2023/05/30 04:49:19;;;;;;;10.93;2.72;;;11.90;99.90;;;;;;5095796;28;20044;-84
2023/05/30 04:51:44;;;;;;;6.55;2.55;;;11.80;99.90;;;;;;5077556;28;20044;-85
2023/05/30 04:54:12;;;;;;;8.60;2.63;;;11.80;99.90;;;;;;5077314;28;20056;-84
2023/05/30 04:56:38;;;;;;;8.02;2.55;;;11.90;99.90;;;;;;5076978;28;20044;-84
2023/05/30 04:59:05;;;;;;;11.05;2.65;;;11.90;99.90;;;;;;5076992;28;20479;-83
2023/05/30 05:01:35;;;;;;;12.65;2.75;;;12.00;99.90;;;;;;5077093;28;20087;-84
2023/05/30 05:04:02;;;;;;;6.90;2.13;;;12.00;99.90;;;;;;5076953;28;20052;-83
2023/05/30 05:06:37;;;;;;;13.82;2.03;;;12.00;99.90;;;;;;5076758;28;20052;-84
2023/05/30 05:09:02;;;;;;;8.45;1.92;;;12.00;99.90;;;;;;5076765;28;20044;-84
2023/05/30 05:11:28;;;;;;;7.93;1.75;;;12.00;99.90;;;;;;5076280;28;20081;-84
2023/05/30 05:13:54;;;;;;;10.35;2.22;;;11.90;99.90;;;;;;5076267;28;20117;-88
2023/05/30 05:16:19;;;;;;;10.43;2.72;;;12.00;99.90;;;;;;5076144;28;20471;-86
2023/05/30 05:18:48;;;;;;;11.77;4.07;;;11.90;99.90;;;;;;5094450;28;20040;-84
2023/05/30 05:21:14;;;;;;;10.70;3.05;;;11.90;99.90;;;;;;5076072;28;20380;-84
2023/05/30 05:23:39;;;;;;;11.18;2.78;;;11.90;99.90;;;;;;5076101;28;20036;-85
2023/05/30 05:26:05;;;;;;;11.30;2.83;;;11.90;99.90;;;;;;5076026;28;20040;-83
2023/05/30 05:28:31;;;;;;;20.23;3.33;;;11.90;99.90;;;;;;5076211;28;20051;-83
2023/05/30 05:30:58;;;;;;;12.13;2.17;;;11.90;99.90;;;;;;5076012;28;20406;-83
2023/05/30 05:33:24;;;;;;;9.60;2.30;;;12.00;99.90;;;;;;4904911;28;4864951;-83
2023/05/30 05:35:50;;;;;;;8.02;2.03;;;12.00;99.90;;;;;;5077108;28;20064;-83
2023/05/30 05:38:16;;;;;;;12.45;1.88;;;12.00;99.90;;;;;;5095010;28;20044;-83
2023/05/30 05:40:42;;;;;;;12.70;2.78;;;12.00;99.90;;;;;;5077018;28;20040;-84
2023/05/30 05:43:08;;;;;;;18.90;2.30;;;12.00;99.90;;;;;;5076831;28;20059;-84
2023/05/30 05:45:34;;;;;;;7.22;2.30;;;12.00;99.90;;;;;;5076886;28;20048;-84
2023/05/30 05:48:00;;;;;;;17.50;2.53;;;12.00;99.90;;;;;;5076901;28;20068;-85
2023/05/30 05:50:26;;;;;;;11.50;2.45;;;12.00;99.90;;;;;;5076634;28;20479;-85
2023/05/30 05:52:51;;;;;;;10.98;3.30;;;12.00;99.90;;;;;;5076499;28;20043;-84
2023/05/30 05:55:17;;;;;;;11.38;2.60;;;12.10;99.90;;;;;;5076512;28;20171;-84
2023/05/30 05:57:43;;;;;;;4.70;1.75;;;12.10;99.90;;;;;;5076431;28;20040;-83
2023/05/30 06:00:09;;;;;;;13.60;2.33;;;12.10;99.90;;;;;;5076735;28;20428;-84
2023/05/30 06:02:35;;;;;;;11.23;2.00;;;12.10;99.90;;;;;;5076278;28;20123;-83
2023/05/30 06:05:01;;;;;;;4.40;1.20;;;12.20;99.90;;;;;;5094395;28;20120;-84
2023/05/30 06:07:27;;;;;;;10.23;2.10;;;12.20;99.90;;;;;;5075955;28;20123;-84
2023/05/30 06:09:52;;;;;;;8.30;1.83;;;12.20;99.90;;;;;;5076412;28;20479;-84
2023/05/30 06:12:18;;;;;;;6.57;1.98;;;12.20;99.90;;;;;;5094347;28;20044;-84
2023/05/30 06:14:44;;;;;;;7.63;1.75;;;12.20;99.90;;;;;;5094302;28;20039;-84
2023/05/30 06:17:09;;;;;;;10.38;2.03;;;12.20;99.90;;;;;;5076056;28;20408;-84
2023/05/30 06:19:35;;;;;;;10.77;2.20;;;12.20;99.90;;;;;;5076117;28;20145;-83
2023/05/30 06:22:01;;;;;;;12.07;1.95;;;12.20;99.90;;;;;;5074910;28;20105;-84
2023/05/30 06:24:26;;;;;;;8.63;1.98;;;12.30;99.90;;;;;;5075535;28;20075;-86
2023/05/30 06:26:52;;;;;;;15.20;2.70;;;12.20;99.90;;;;;;5075906;28;20193;-84
2023/05/30 06:29:21;;;;;;;11.70;2.58;;;12.30;99.90;;;;;;5075753;28;20044;-84
2023/05/30 06:31:46;;;;;;;9.38;1.95;;;12.20;99.90;;;;;;5075665;28;20055;-84
2023/05/30 06:34:15;;;;;;;8.50;1.60;;;12.20;99.90;;;;;;5075171;28;20471;-83
2023/05/30 06:36:50;;;;;;;6.93;1.42;;;12.30;99.90;;;;;;5093863;28;20063;-83
2023/05/30 06:39:18;;;;;;;5.70;1.75;;;12.40;99.90;;;;;;5075603;28;20075;-85
2023/05/30 06:41:48;;;;;;;10.88;2.08;;;12.30;99.90;;;;;;5075587;28;20151;-85
2023/05/30 06:44:13;;;;;;;9.32;2.60;;;12.40;99.90;;;;;;5090852;28;20122;-82
2023/05/30 06:46:39;;;;;;;7.40;1.58;;;12.40;99.90;;;;;;5095251;28;20456;-85
2023/05/30 06:49:05;;;;;;;4.88;1.65;;;12.30;99.90;;;;;;5095227;28;20050;-86
2023/05/30 06:51:31;;;;;;;6.22;1.10;;;12.30;99.90;;;;;;5095229;28;20051;-81
2023/05/30 06:53:57;;;;;;;6.38;1.60;;;12.30;99.90;;;;;;5113434;28;20092;-83
2023/05/30 06:56:23;;;;;;;7.53;1.50;;;12.30;99.90;;;;;;5113705;28;20047;-82
2023/05/30 06:58:51;;;;;;;4.75;1.33;;;12.40;99.90;;;;;;5094968;28;20051;-81
2023/05/30 07:01:17;;;;;;;10.15;3.63;;;12.30;99.90;;;;;;5095380;28;20048;-86
2023/05/30 07:03:43;;;;;;;6.80;1.30;;;12.40;99.90;;;;;;5095044;28;20039;-81
2023/05/30 07:06:09;;;;;;;7.57;1.23;;;12.40;99.90;;;;;;5094724;28;20050;-85
2023/05/30 07:08:35;;;;;;;3.78;1.00;;;12.40;99.90;;;;;;5094881;28;20044;-82
2023/05/30 07:11:00;;;;;;;8.70;1.38;;;12.40;99.90;;;;;;5094881;28;20062;-81
2023/05/30 07:13:26;;;;;;;7.20;1.08;;;12.40;99.90;;;;;;5095152;28;20130;-82
2023/05/30 07:15:52;;;;;;;6.80;1.58;;;12.50;99.90;;;;;;5094991;28;20054;-82
2023/05/30 07:18:17;;;;;;;10.00;1.70;;;12.60;99.90;;;;;;5094897;28;20447;-82
2023/05/30 07:20:43;;;;;;;5.78;0.93;;;12.60;99.90;;;;;;5094759;28;20424;-82
2023/05/30 07:23:08;;;;;;;11.07;1.42;;;12.70;99.90;;;;;;5095105;28;20533;-80
2023/05/30 07:25:34;;;;;;;4.03;0.82;;;12.80;99.90;;;;;;5094858;28;20074;-81
2023/05/30 07:28:00;;;;;;;3.55;0.50;;;12.80;99.90;;;;;;5095090;28;20497;-84
2023/05/30 07:30:26;;;;;;;6.25;1.08;;;12.90;99.90;;;;;;5095216;28;20483;-85
2023/05/30 07:32:52;;;;;;;4.47;0.80;;;13.10;99.90;;;;;;5094329;28;20052;-80
2023/05/30 07:35:19;;;;;;;5.82;0.70;;;13.30;99.90;;;;;;5112643;28;20063;-83
2023/05/30 07:37:45;;;;;;;6.75;1.23;;;13.60;99.90;;;;;;5094608;28;20105;-81
2023/05/30 07:40:12;;;;;;;4.20;0.95;;;13.80;99.90;;;;;;5094725;28;20048;-85
2023/05/30 07:42:37;;;;;;;2.75;0.98;;;13.80;99.90;;;;;;5094418;28;20048;-82
2023/05/30 07:45:03;;;;;;;3.20;0.40;;;13.70;99.90;;;;;;5094837;28;20043;-82
2023/05/30 07:47:29;;;;;;;3.90;0.60;;;13.70;99.90;;;;;;5095015;28;20031;-81
2023/05/30 07:49:55;;;;;;;5.22;0.93;;;14.00;99.90;;;;;;5094534;28;20383;-81
2023/05/30 07:52:21;;;;;;;1.83;0.20;;;14.30;99.90;;;;;;5094108;28;20047;-79
2023/05/30 07:54:46;;;;;;;3.85;0.50;;;14.60;99.90;;;;;;5094181;28;20039;-81
2023/05/30 07:57:15;;;;;;;3.17;0.50;;;14.90;99.90;;;;;;5094391;28;20118;-82
2023/05/30 07:59:41;;;;;;;3.13;0.45;;;15.00;99.90;;;;;;5094193;28;20047;-80
2023/05/30 08:02:07;;;;;;;3.22;0.60;;;15.10;99.90;;;;;;5094297;28;20048;-83
2023/05/30 08:04:33;;;;;;;1.98;0.30;;;15.10;99.90;;;;;;5094186;28;20097;-82
2023/05/30 08:07:02;;;;;;;8.88;0.70;;;15.00;99.90;;;;;;5094221;28;20040;-81
2023/05/30 08:09:29;;;;;;;3.17;0.32;;;15.00;99.90;;;;;;5094196;28;20047;-82
2023/05/30 08:11:54;;;;;;;4.35;0.35;;;14.90;99.90;;;;;;5094066;28;20047;-83
2023/05/30 08:14:20;;;;;;;3.45;0.40;;;14.80;99.90;;;;;;5094297;28;20046;-82
2023/05/30 08:16:45;;;;;;;3.40;0.82;;;14.70;99.90;;;;;;5094021;28;20063;-81
2023/05/30 08:19:11;;;;;;;6.20;1.17;;;14.60;99.90;;;;;;5094056;28;20452;-81
2023/05/30 08:21:37;;;;;;;2.42;0.40;;;14.70;99.90;;;;;;5112168;28;20096;-80
2023/05/30 08:24:07;;;;;;;4.72;0.75;;;14.70;99.90;;;;;;5112381;28;20040;-79
2023/05/30 08:26:32;;;;;;;5.78;0.60;;;14.70;99.90;;;;;;5112220;28;20055;-81
2023/05/30 08:28:59;;;;;;;5.13;0.70;;;14.80;99.90;;;;;;5094191;28;20048;-85
2023/05/30 08:31:29;;;;;;;5.10;0.93;;;14.90;99.90;;;;;;5094050;28;20050;-81
2023/05/30 08:33:57;;;;;;;5.47;0.85;;;14.90;99.90;;;;;;5093993;28;20097;-84
2023/05/30 08:36:24;;;;;;;3.33;0.80;;;15.00;99.90;;;;;;5111022;28;20475;-83
2023/05/30 08:38:53;;;;;;;2.88;0.60;;;15.00;99.90;;;;;;5094360;28;20055;-81
2023/05/30 08:41:20;;;;;;;5.95;0.68;;;14.90;99.90;;;;;;5112709;28;20047;-82
2023/05/30 08:43:49;;;;;;;3.15;0.80;;;14.90;99.90;;;;;;5112771;28;20039;-85
2023/05/30 08:46:18;;;;;;;9.20;1.27;;;14.90;99.90;;;;;;5096793;28;20050;-83
2023/05/30 08:48:45;;;;;;;11.30;1.50;;;15.10;99.90;;;;;;5097790;28;20054;-85
2023/05/30 08:51:15;;;;;;;3.53;0.63;;;15.10;99.90;;;;;;5098125;28;20393;-82
2023/05/30 08:53:49;;;;;;;13.13;1.58;;;15.00;99.90;;;;;;5098010;28;20044;-84
2023/05/30 08:56:34;;;;;;;11.63;1.98;;;15.00;99.90;;;;;;5097767;28;20047;-85
2023/05/30 08:59:02;;;;;;;4.78;1.20;;;14.90;99.90;;;;;;5097721;28;20047;-83
2023/05/30 09:01:29;;;;;;;15.65;1.38;;;14.90;99.90;;;;;;5097638;28;20048;-86
2023/05/30 09:03:56;;;;;;;4.75;0.70;;;14.70;99.90;;;;;;5114753;28;20050;-83
2023/05/30 09:06:23;;;;;;;14.70;1.30;;;14.70;99.90;;;;;;5097553;28;20055;-82
2023/05/30 09:08:51;;;;;;;2.50;0.52;;;14.80;99.90;;;;;;5097717;28;20040;-83
2023/05/30 09:11:18;;;;;;;8.57;0.93;;;14.90;99.90;;;;;;5097532;28;20052;-81
2023/05/30 09:13:45;;;;;;;4.47;0.70;;;14.90;99.90;;;;;;5096775;28;20126;-82
2023/05/30 09:16:11;;;;;;;5.20;0.77;;;15.00;99.90;;;;;;5097548;28;20212;-82
2023/05/30 09:18:37;;;;;;;1.08;0.28;;;15.00;99.90;;;;;;5097611;28;20055;-83
2023/05/30 09:21:03;;;;;;;4.28;0.40;;;15.10;99.90;;;;;;5097204;28;20147;-82
2023/05/30 09:23:29;;;;;;;3.35;0.90;;;15.20;99.90;;;;;;5115262;28;20118;-82
2023/05/30 09:25:59;;;;;;;4.82;0.50;;;15.10;99.90;;;;;;5097263;28;20044;-82
2023/05/30 09:28:27;;;;;;;2.67;0.60;;;15.40;99.90;;;;;;5097242;28;20051;-83
2023/05/30 09:30:54;;;;;;;8.82;1.08;;;15.60;99.90;;;;;;5097168;28;20100;-82
2023/05/30 09:33:23;;;;;;;8.05;1.00;;;15.80;99.90;;;;;;5082420;28;20119;-86
2023/05/30 09:35:53;;;;;;;5.05;0.80;;;16.10;99.90;;;;;;5076491;28;20544;-83
2023/05/30 09:38:23;;;;;;;7.68;0.70;;;16.20;99.90;;;;;;5076819;28;20077;-83
2023/05/30 09:41:04;;;;;;;1.45;0.60;;;16.40;99.90;;;;;;5076381;28;20405;-83
2023/05/30 09:43:33;;;;;;;8.23;1.17;;;16.40;99.90;;;;;;5076483;28;20094;-83
2023/05/30 09:46:03;;;;;;;4.72;1.33;;;16.20;99.90;;;;;;5076666;28;20074;-83
2023/05/30 09:48:29;;;;;;;4.18;0.85;;;16.10;99.90;;;;;;5076632;28;20040;-85
2023/05/30 09:50:59;;;;;;;1.98;0.57;;;15.90;99.90;;;;;;5076450;28;20048;-85
2023/05/30 09:53:32;;;;;;;1.70;0.43;;;15.70;99.90;;;;;;5076511;28;20098;-82
2023/05/30 09:55:58;;;;;;;3.00;0.45;;;15.60;99.90;;;;;;5075838;28;20602;-81
2023/05/30 09:58:24;;;;;;;4.13;0.30;;;15.80;99.90;;;;;;5093844;28;20044;-84
2023/05/30 10:00:52;;;;;;;4.13;0.40;;;15.80;99.90;;;;;;5094534;28;20172;-82
2023/05/30 10:03:41;;;;;;;3.55;0.40;;;15.70;99.90;;;;;;5076231;28;20043;-84
2023/05/30 10:06:16;;;;;;;3.45;0.50;;;15.80;99.90;;;;;;5076214;28;20396;-82
2023/05/30 10:08:44;;;;;;;3.30;0.90;;;15.70;99.90;;;;;;5075893;28;20048;-83
2023/05/30 10:11:11;;;;;;;5.85;0.50;;;16.10;99.90;;;;;;5075826;28;20040;-80
2023/05/30 10:13:37;;;;;;;6.75;0.93;;;16.10;99.90;;;;;;5076077;28;20054;-82
2023/05/30 10:16:07;;;;;;;7.40;0.80;;;16.30;99.90;;;;;;5075972;28;20123;-82
2023/05/30 10:18:36;;;;;;;4.07;0.73;;;16.40;99.90;;;;;;5075738;28;20093;-81
2023/05/30 10:21:03;;;;;;;2.05;0.65;;;16.50;99.90;;;;;;5075830;28;20044;-83
2023/05/30 10:23:29;;;;;;;21.85;2.72;;;16.60;99.90;;;;;;5075722;28;20044;-81
2023/05/30 10:25:55;;;;;;;10.50;1.45;;;16.60;99.90;;;;;;5075556;28;20048;-81
2023/05/30 10:28:28;;;;;;;8.57;0.93;;;16.50;99.90;;;;;;5075590;28;20109;-82
2023/05/30 10:30:56;;;;;;;10.00;1.20;;;16.40;99.90;;;;;;5075625;28;20123;-83
2023/05/30 10:33:25;;;;;;;12.52;1.58;;;16.20;99.90;;;;;;5093583;28;20044;-81
2023/05/30 10:35:54;;;;;;;6.15;0.52;;;16.20;99.90;;;;;;5075269;28;20044;-82
2023/05/30 10:38:23;;;;;;;3.90;0.70;;;16.10;99.90;;;;;;5075430;28;20046;-84
2023/05/30 10:41:24;;;;;;;10.52;1.20;;;16.10;99.90;;;;;;5075179;28;20048;-83
2023/05/30 10:44:22;;;;;;;8.73;1.25;;;16.10;99.90;;;;;;5093529;28;20135;-82
2023/05/30 10:46:58;;;;;;;20.52;1.67;;;16.20;99.90;;;;;;5075147;28;20048;-83
2023/05/30 10:49:26;;;;;;;15.55;1.00;;;16.20;99.90;;;;;;5075150;28;20047;-83
2023/05/30 10:52:05;;;;;;;9.48;1.27;;;16.20;99.90;;;;;;5093452;28;20071;-87
2023/05/30 10:54:36;;;;;;;5.07;0.60;;;16.50;99.90;;;;;;5075320;28;20150;-80
2023/05/30 10:57:26;;;;;;;4.05;0.95;;;16.80;99.90;;;;;;5074833;28;20058;-82
2023/05/30 11:00:22;;;;;;;5.95;1.02;;;16.90;99.90;;;;;;5093197;28;20518;-80
2023/05/30 11:02:51;;;;;;;2.67;0.73;;;17.00;99.90;;;;;;5085317;28;20152;-83
2023/05/30 11:05:21;;;;;;;5.43;0.80;;;17.00;99.90;;;;;;5075041;28;20059;-84
2023/05/30 11:07:47;;;;;;;6.22;0.90;;;16.80;99.90;;;;;;5092855;28;20051;-83
2023/05/30 11:10:14;;;;;;;2.97;0.73;;;16.70;99.90;;;;;;5074800;28;20043;-82
2023/05/30 11:12:44;;;;;;;4.93;0.70;;;16.50;99.90;;;;;;5074691;28;20466;-82
2023/05/30 11:15:15;;;;;;;6.35;0.80;;;16.60;99.90;;;;;;5074875;28;20407;-82
2023/05/30 11:17:41;;;;;;;14.77;1.60;;;16.50;99.90;;;;;;5074841;28;20044;-85
2023/05/30 11:20:09;;;;;;;9.57;1.27;;;16.50;99.90;;;;;;5074787;28;20080;-84
2023/05/30 11:22:38;;;;;;;4.75;1.13;;;16.70;99.90;;;;;;5074770;28;20101;-82
2023/05/30 11:25:19;;;;;;;11.23;1.05;;;17.00;99.90;;;;;;5075256;28;20506;-82
2023/05/30 11:28:03;;;;;;;10.27;1.20;;;16.90;99.90;;;;;;5074751;28;20040;-91
2023/05/30 11:30:43;;;;;;;5.63;0.90;;;17.10;99.90;;;;;;5075196;28;20055;-81
2023/05/30 11:33:12;;;;;;;5.40;1.02;;;16.70;99.90;;;;;;5074156;28;20044;-81
2023/05/30 11:35:38;;;;;;;7.22;1.40;;;17.10;99.90;;;;;;5093034;28;20082;-80
2023/05/30 11:38:06;;;;;;;5.82;1.02;;;17.10;99.90;;;;;;5092743;28;20044;-88
2023/05/30 11:40:32;;;;;;;2.97;1.15;;;16.90;99.90;;;;;;5074675;28;20044;-84
2023/05/30 11:42:58;;;;;;;6.97;1.27;;;16.90;99.90;;;;;;5074670;28;20050;-82
2023/05/30 11:45:32;;;;;;;7.60;1.20;;;16.80;99.90;;;;;;5074786;28;20229;-81
2023/05/30 11:48:11;;;;;;;8.82;1.40;;;16.70;99.90;;;;;;5074798;28;20126;-82
2023/05/30 11:50:41;;;;;;;8.50;1.95;;;16.80;99.90;;;;;;5074404;28;20047;-82
2023/05/30 11:53:14;;;;;;;5.85;1.48;;;16.60;99.90;;;;;;5092544;28;20456;-81
2023/05/30 11:55:49;;;;;;;10.80;1.52;;;16.50;99.90;;;;;;5074490;28;20052;-81
2023/05/30 11:58:16;;;;;;;9.30;1.25;;;16.30;99.90;;;;;;5074487;28;20040;-82
2023/05/30 12:00:42;;;;;;;7.53;1.48;;;16.30;99.90;;;;;;5074734;28;20052;-81
2023/05/30 12:03:16;;;;;;;4.90;1.25;;;15.90;99.90;;;;;;5074305;28;20051;-83
2023/05/30 12:05:42;;;;;;;5.40;1.15;;;16.00;99.90;;;;;;5074763;28;20098;-82
2023/05/30 12:08:08;;;;;;;2.38;0.80;;;15.60;99.90;;;;;;5074442;28;20499;-83
2023/05/30 12:10:34;;;;;;;2.10;0.60;;;15.50;99.90;;;;;;5073858;28;20051;-83
2023/05/30 12:13:01;;;;;;;3.03;0.73;;;15.70;99.90;;;;;;5091237;28;20091;-79
2023/05/30 12:15:26;;;;;;;1.63;0.60;;;15.50;99.90;;;;;;5094643;28;20072;-82
2023/05/30 12:17:52;;;;;;;5.53;0.80;;;15.60;99.90;;;;;;5094388;28;20043;-82
2023/05/30 12:20:20;;;;;;;2.53;0.60;;;15.50;99.90;;;;;;5095898;28;20043;-88
2023/05/30 12:22:47;;;;;;;3.67;0.50;;;15.40;99.90;;;;;;5098309;28;20039;-81
2023/05/30 12:25:13;;;;;;;2.33;0.50;;;15.40;99.90;;;;;;5098324;28;20528;-79
2023/05/30 12:27:52;;;;;;;2.85;0.90;;;15.60;99.90;;;;;;5098344;28;20122;-79
2023/05/30 12:30:19;;;;;;;2.92;0.75;;;15.80;99.90;;;;;;5098503;28;20483;-80
2023/05/30 12:32:45;;;;;;;3.08;0.90;;;15.50;99.90;;;;;;5098354;28;20118;-79
2023/05/30 12:35:12;;;;;;;5.03;0.80;;;15.80;99.90;;;;;;5097773;28;20070;-79
2023/05/30 12:37:38;;;;;;;11.50;0.98;;;16.10;99.90;;;;;;5097861;28;20055;-81
2023/05/30 12:40:06;;;;;;;6.97;0.95;;;16.50;99.90;;;;;;5098092;28;20055;-81
2023/05/30 12:42:32;;;;;;;6.03;0.90;;;16.60;99.90;;;;;;5097783;28;20047;-81
2023/05/30 12:45:00;;;;;;;4.80;1.00;;;16.70;99.90;;;;;;5097802;28;20543;-80
2023/05/30 12:47:27;;;;;;;12.32;1.60;;;16.70;99.90;;;;;;5098150;28;20035;-79